sensor_id;sensor_type;location;lat;lon;timestamp;temperature;humidity
12578;DHT22;6354;51.026;8.968;2022-08-21T00:01:53;17.30;99.90
12578;DHT22;6354;51.026;8.968;2022-08-21T00:04:21;17.30;99.90
12578;DHT22;6354;51.026;8.968;2022-08-21T00:06:57;17.20;99.90
12578;DHT22;6354;51.026;8.968;2022-08-21T00:09:25;17.20;99.90
12578;DHT22;6354;51.026;8.968;2022-08-21T00:11:53;17.10;99.90
12578;DHT22;6354;51.026;8.968;2022-08-21T00:14:21;17.10;99.90
12578;DHT22;6354;51.026;8.968;2022-08-21T00:16:50;17.00;99.90
12578;DHT22;6354;51.026;8.968;2022-08-21T00:19:20;16.90;99.90
12578;DHT22;6354;51.026;8.968;2022-08-21T00:21:51;16.90;99.90
12578;DHT22;6354;51.026;8.968;2022-08-21T00:24:21;16.90;99.90
12578;DHT22;6354;51.026;8.968;2022-08-21T00:26:50;16.80;99.90
12578;DHT22;6354;51.026;8.968;2022-08-21T00:29:19;16.80;99.90
12578;DHT22;6354;51.026;8.968;2022-08-21T00:31:47;16.70;99.90
12578;DHT22;6354;51.026;8.968;2022-08-21T00:34:15;16.70;99.90
12578;DHT22;6354;51.026;8.968;2022-08-21T00:36:43;16.60;99.90
12578;DHT22;6354;51.026;8.968;2022-08-21T00:39:11;16.50;99.90
12578;DHT22;6354;51.026;8.968;2022-08-21T00:41:41;16.50;99.90
12578;DHT22;6354;51.026;8.968;2022-08-21T00:44:12;16.40;99.90
12578;DHT22;6354;51.026;8.968;2022-08-21T00:46:41;16.40;99.90
12578;DHT22;6354;51.026;8.968;2022-08-21T00:49:10;16.40;99.90
12578;DHT22;6354;51.026;8.968;2022-08-21T00:51:43;16.40;99.90
12578;DHT22;6354;51.026;8.968;2022-08-21T00:54:12;16.40;99.90
12578;DHT22;6354;51.026;8.968;2022-08-21T00:56:58;16.30;99.90
12578;DHT22;6354;51.026;8.968;2022-08-21T00:59:28;16.30;99.90
12578;DHT22;6354;51.026;8.968;2022-08-21T01:01:57;16.30;99.90
12578;DHT22;6354;51.026;8.968;2022-08-21T01:04:26;16.20;99.90
12578;DHT22;6354;51.026;8.968;2022-08-21T01:06:54;16.20;99.90
12578;DHT22;6354;51.026;8.968;2022-08-21T01:09:22;16.20;99.90
12578;DHT22;6354;51.026;8.968;2022-08-21T01:11:52;16.10;99.90
12578;DHT22;6354;51.026;8.968;2022-08-21T01:14:20;16.10;99.90
12578;DHT22;6354;51.026;8.968;2022-08-21T01:16:51;16.00;99.90
12578;DHT22;6354;51.026;8.968;2022-08-21T01:19:20;16.10;99.90
12578;DHT22;6354;51.026;8.968;2022-08-21T01:21:51;16.00;99.90
12578;DHT22;6354;51.026;8.968;2022-08-21T01:24:21;16.00;99.90
12578;DHT22;6354;51.026;8.968;2022-08-21T01:26:49;16.10;99.90
12578;DHT22;6354;51.026;8.968;2022-08-21T01:29:26;16.10;99.90
12578;DHT22;6354;51.026;8.968;2022-08-21T01:31:57;16.10;99.90
12578;DHT22;6354;51.026;8.968;2022-08-21T01:34:25;16.00;99.90
12578;DHT22;6354;51.026;8.968;2022-08-21T01:36:55;16.00;99.90
12578;DHT22;6354;51.026;8.968;2022-08-21T01:39:23;16.00;99.90
12578;DHT22;6354;51.026;8.968;2022-08-21T01:41:51;15.90;99.90
12578;DHT22;6354;51.026;8.968;2022-08-21T01:44:20;15.90;99.90
12578;DHT22;6354;51.026;8.968;2022-08-21T01:46:49;15.90;99.90
12578;DHT22;6354;51.026;8.968;2022-08-21T01:49:17;15.80;99.90
12578;DHT22;6354;51.026;8.968;2022-08-21T01:51:45;15.80;99.90
12578;DHT22;6354;51.026;8.968;2022-08-21T01:54:15;15.80;99.90
12578;DHT22;6354;51.026;8.968;2022-08-21T01:56:45;15.70;99.90
12578;DHT22;6354;51.026;8.968;2022-08-21T01:59:14;15.70;99.90
12578;DHT22;6354;51.026;8.968;2022-08-21T02:01:42;15.70;99.90
12578;DHT22;6354;51.026;8.968;2022-08-21T02:04:10;15.60;99.90
12578;DHT22;6354;51.026;8.968;2022-08-21T02:06:38;15.60;99.90
12578;DHT22;6354;51.026;8.968;2022-08-21T02:09:09;15.50;99.90
12578;DHT22;6354;51.026;8.968;2022-08-21T02:11:38;15.60;99.90
12578;DHT22;6354;51.026;8.968;2022-08-21T02:14:07;15.50;99.90
12578;DHT22;6354;51.026;8.968;2022-08-21T02:16:35;15.60;99.90
12578;DHT22;6354;51.026;8.968;2022-08-21T02:19:04;15.60;99.90
12578;DHT22;6354;51.026;8.968;2022-08-21T02:21:33;15.60;99.90
12578;DHT22;6354;51.026;8.968;2022-08-21T02:24:02;15.60;99.90
12578;DHT22;6354;51.026;8.968;2022-08-21T02:26:30;15.60;99.90
12578;DHT22;6354;51.026;8.968;2022-08-21T02:29:00;15.60;99.90
12578;DHT22;6354;51.026;8.968;2022-08-21T02:31:28;15.50;99.90
12578;DHT22;6354;51.026;8.968;2022-08-21T02:33:56;15.50;99.90
12578;DHT22;6354;51.026;8.968;2022-08-21T02:36:26;15.50;99.90
12578;DHT22;6354;51.026;8.968;2022-08-21T02:38:55;15.40;99.90
12578;DHT22;6354;51.026;8.968;2022-08-21T02:41:23;15.40;99.90
12578;DHT22;6354;51.026;8.968;2022-08-21T02:43:51;15.30;99.90
12578;DHT22;6354;51.026;8.968;2022-08-21T02:46:20;15.30;99.90
12578;DHT22;6354;51.026;8.968;2022-08-21T02:48:49;15.30;99.90
12578;DHT22;6354;51.026;8.968;2022-08-21T02:51:19;15.30;99.90
12578;DHT22;6354;51.026;8.968;2022-08-21T02:53:49;15.30;99.90
12578;DHT22;6354;51.026;8.968;2022-08-21T02:56:19;15.20;99.90
12578;DHT22;6354;51.026;8.968;2022-08-21T02:58:49;15.20;99.90
12578;DHT22;6354;51.026;8.968;2022-08-21T03:01:18;15.20;99.90
12578;DHT22;6354;51.026;8.968;2022-08-21T03:03:48;15.10;99.90
12578;DHT22;6354;51.026;8.968;2022-08-21T03:06:20;15.10;99.90
12578;DHT22;6354;51.026;8.968;2022-08-21T03:08:48;15.10;99.90
12578;DHT22;6354;51.026;8.968;2022-08-21T03:11:17;15.10;99.90
12578;DHT22;6354;51.026;8.968;2022-08-21T03:13:45;15.10;99.90
12578;DHT22;6354;51.026;8.968;2022-08-21T03:16:13;15.10;99.90
12578;DHT22;6354;51.026;8.968;2022-08-21T03:18:42;15.00;99.90
12578;DHT22;6354;51.026;8.968;2022-08-21T03:21:11;15.00;99.90
12578;DHT22;6354;51.026;8.968;2022-08-21T03:23:40;15.00;99.90
12578;DHT22;6354;51.026;8.968;2022-08-21T03:26:09;15.00;99.90
12578;DHT22;6354;51.026;8.968;2022-08-21T03:28:38;15.00;99.90
12578;DHT22;6354;51.026;8.968;2022-08-21T03:31:06;14.90;99.90
12578;DHT22;6354;51.026;8.968;2022-08-21T03:33:35;14.90;99.90
12578;DHT22;6354;51.026;8.968;2022-08-21T03:36:06;14.90;99.90
12578;DHT22;6354;51.026;8.968;2022-08-21T03:38:36;14.90;99.90
12578;DHT22;6354;51.026;8.968;2022-08-21T03:41:06;14.90;99.90
12578;DHT22;6354;51.026;8.968;2022-08-21T03:43:34;14.90;99.90
12578;DHT22;6354;51.026;8.968;2022-08-21T03:46:04;14.90;99.90
12578;DHT22;6354;51.026;8.968;2022-08-21T03:48:34;14.90;99.90
12578;DHT22;6354;51.026;8.968;2022-08-21T03:51:04;14.90;99.90
12578;DHT22;6354;51.026;8.968;2022-08-21T03:53:34;14.90;99.90
12578;DHT22;6354;51.026;8.968;2022-08-21T03:56:03;14.80;99.90
12578;DHT22;6354;51.026;8.968;2022-08-21T03:58:32;14.80;99.90
12578;DHT22;6354;51.026;8.968;2022-08-21T04:01:00;14.80;99.90
12578;DHT22;6354;51.026;8.968;2022-08-21T04:03:28;14.70;99.90
12578;DHT22;6354;51.026;8.968;2022-08-21T04:05:56;14.70;99.90
12578;DHT22;6354;51.026;8.968;2022-08-21T04:08:24;14.70;99.90
12578;DHT22;6354;51.026;8.968;2022-08-21T04:10:55;14.70;99.90
12578;DHT22;6354;51.026;8.968;2022-08-21T04:13:25;14.70;99.90
12578;DHT22;6354;51.026;8.968;2022-08-21T04:15:55;14.60;99.90
12578;DHT22;6354;51.026;8.968;2022-08-21T04:18:24;14.60;99.90
12578;DHT22;6354;51.026;8.968;2022-08-21T04:20:54;14.60;99.90
12578;DHT22;6354;51.026;8.968;2022-08-21T04:23:24;14.60;99.90
12578;DHT22;6354;51.026;8.968;2022-08-21T04:25:54;14.60;99.90
12578;DHT22;6354;51.026;8.968;2022-08-21T04:28:24;14.60;99.90
12578;DHT22;6354;51.026;8.968;2022-08-21T04:30:56;14.60;99.90
12578;DHT22;6354;51.026;8.968;2022-08-21T04:33:24;14.60;99.90
12578;DHT22;6354;51.026;8.968;2022-08-21T04:35:52;14.70;99.90
12578;DHT22;6354;51.026;8.968;2022-08-21T04:38:21;14.70;99.90
12578;DHT22;6354;51.026;8.968;2022-08-21T04:40:50;14.70;99.90
12578;DHT22;6354;51.026;8.968;2022-08-21T04:43:20;14.70;99.90
12578;DHT22;6354;51.026;8.968;2022-08-21T04:45:51;14.70;99.90
12578;DHT22;6354;51.026;8.968;2022-08-21T04:48:21;14.70;99.90
12578;DHT22;6354;51.026;8.968;2022-08-21T04:50:55;14.70;99.90
12578;DHT22;6354;51.026;8.968;2022-08-21T04:53:28;14.80;99.90
12578;DHT22;6354;51.026;8.968;2022-08-21T04:56:04;14.90;99.90
12578;DHT22;6354;51.026;8.968;2022-08-21T04:58:37;15.20;99.90
12578;DHT22;6354;51.026;8.968;2022-08-21T05:01:09;15.50;99.90
12578;DHT22;6354;51.026;8.968;2022-08-21T05:03:38;15.70;99.90
12578;DHT22;6354;51.026;8.968;2022-08-21T05:06:10;16.00;99.90
12578;DHT22;6354;51.026;8.968;2022-08-21T05:08:41;16.10;99.90
12578;DHT22;6354;51.026;8.968;2022-08-21T05:11:10;16.20;99.90
12578;DHT22;6354;51.026;8.968;2022-08-21T05:13:40;16.40;99.90
12578;DHT22;6354;51.026;8.968;2022-08-21T05:16:08;16.50;99.90
12578;DHT22;6354;51.026;8.968;2022-08-21T05:18:36;16.50;99.90
12578;DHT22;6354;51.026;8.968;2022-08-21T05:21:04;16.40;99.90
12578;DHT22;6354;51.026;8.968;2022-08-21T05:23:32;16.60;99.90
12578;DHT22;6354;51.026;8.968;2022-08-21T05:26:01;16.90;99.90
12578;DHT22;6354;51.026;8.968;2022-08-21T05:28:32;17.20;99.90
12578;DHT22;6354;51.026;8.968;2022-08-21T05:31:01;17.40;99.90
12578;DHT22;6354;51.026;8.968;2022-08-21T05:33:30;17.20;99.90
12578;DHT22;6354;51.026;8.968;2022-08-21T05:36:01;17.10;99.90
12578;DHT22;6354;51.026;8.968;2022-08-21T05:38:29;17.20;99.90
12578;DHT22;6354;51.026;8.968;2022-08-21T05:40:57;17.00;99.90
12578;DHT22;6354;51.026;8.968;2022-08-21T05:43:26;16.90;99.90
12578;DHT22;6354;51.026;8.968;2022-08-21T05:45:54;16.90;99.90
12578;DHT22;6354;51.026;8.968;2022-08-21T05:48:24;16.90;99.90
12578;DHT22;6354;51.026;8.968;2022-08-21T05:50:53;17.00;99.90
12578;DHT22;6354;51.026;8.968;2022-08-21T05:53:22;17.00;99.90
12578;DHT22;6354;51.026;8.968;2022-08-21T05:55:51;17.00;99.90
12578;DHT22;6354;51.026;8.968;2022-08-21T05:58:21;16.90;99.90
12578;DHT22;6354;51.026;8.968;2022-08-21T06:00:50;16.90;99.90
12578;DHT22;6354;51.026;8.968;2022-08-21T06:03:25;16.90;99.90
12578;DHT22;6354;51.026;8.968;2022-08-21T06:05:54;17.00;99.90
12578;DHT22;6354;51.026;8.968;2022-08-21T06:08:24;17.10;99.90
12578;DHT22;6354;51.026;8.968;2022-08-21T06:10:54;17.10;99.90
12578;DHT22;6354;51.026;8.968;2022-08-21T06:13:23;17.20;99.90
12578;DHT22;6354;51.026;8.968;2022-08-21T06:16:01;17.30;99.90
12578;DHT22;6354;51.026;8.968;2022-08-21T06:18:31;17.60;99.90
12578;DHT22;6354;51.026;8.968;2022-08-21T06:20:59;18.00;99.90
12578;DHT22;6354;51.026;8.968;2022-08-21T06:23:27;18.50;99.90
12578;DHT22;6354;51.026;8.968;2022-08-21T06:25:59;19.10;99.90
12578;DHT22;6354;51.026;8.968;2022-08-21T06:28:27;19.50;99.90
12578;DHT22;6354;51.026;8.968;2022-08-21T06:30:55;19.90;99.90
12578;DHT22;6354;51.026;8.968;2022-08-21T06:33:24;20.30;99.90
12578;DHT22;6354;51.026;8.968;2022-08-21T06:35:59;20.90;99.90
12578;DHT22;6354;51.026;8.968;2022-08-21T06:38:27;21.10;99.90
12578;DHT22;6354;51.026;8.968;2022-08-21T06:40:57;21.40;99.90
12578;DHT22;6354;51.026;8.968;2022-08-21T06:43:26;21.60;99.90
12578;DHT22;6354;51.026;8.968;2022-08-21T06:46:06;21.80;99.90
12578;DHT22;6354;51.026;8.968;2022-08-21T06:48:34;22.20;99.90
12578;DHT22;6354;51.026;8.968;2022-08-21T06:51:04;22.40;99.90
12578;DHT22;6354;51.026;8.968;2022-08-21T06:53:32;22.60;99.90
12578;DHT22;6354;51.026;8.968;2022-08-21T06:56:00;22.70;99.90
12578;DHT22;6354;51.026;8.968;2022-08-21T06:58:29;23.00;99.90
12578;DHT22;6354;51.026;8.968;2022-08-21T07:00:57;23.20;99.90
12578;DHT22;6354;51.026;8.968;2022-08-21T07:03:29;23.20;99.90
12578;DHT22;6354;51.026;8.968;2022-08-21T07:05:57;23.30;99.90
12578;DHT22;6354;51.026;8.968;2022-08-21T07:08:28;23.30;99.90
12578;DHT22;6354;51.026;8.968;2022-08-21T07:10:58;23.50;99.90
12578;DHT22;6354;51.026;8.968;2022-08-21T07:13:27;23.80;99.90
12578;DHT22;6354;51.026;8.968;2022-08-21T07:15:55;23.80;99.90
12578;DHT22;6354;51.026;8.968;2022-08-21T07:18:29;24.00;99.90
12578;DHT22;6354;51.026;8.968;2022-08-21T07:20:57;24.00;99.90
12578;DHT22;6354;51.026;8.968;2022-08-21T07:23:30;24.10;99.90
12578;DHT22;6354;51.026;8.968;2022-08-21T07:25:59;24.20;99.90
12578;DHT22;6354;51.026;8.968;2022-08-21T07:28:29;24.20;99.90
12578;DHT22;6354;51.026;8.968;2022-08-21T07:30:58;24.30;99.90
12578;DHT22;6354;51.026;8.968;2022-08-21T07:33:29;24.40;99.90
12578;DHT22;6354;51.026;8.968;2022-08-21T07:35:57;24.80;99.90
12578;DHT22;6354;51.026;8.968;2022-08-21T07:38:28;24.90;99.90
12578;DHT22;6354;51.026;8.968;2022-08-21T07:40:57;24.80;99.90
12578;DHT22;6354;51.026;8.968;2022-08-21T07:43:27;25.10;99.90
12578;DHT22;6354;51.026;8.968;2022-08-21T07:45:56;25.20;99.90
12578;DHT22;6354;51.026;8.968;2022-08-21T07:48:25;25.20;99.90
12578;DHT22;6354;51.026;8.968;2022-08-21T07:50:53;25.30;99.90
12578;DHT22;6354;51.026;8.968;2022-08-21T07:53:22;25.20;99.90
12578;DHT22;6354;51.026;8.968;2022-08-21T07:55:51;25.30;99.90
12578;DHT22;6354;51.026;8.968;2022-08-21T07:58:20;25.40;99.90
12578;DHT22;6354;51.026;8.968;2022-08-21T08:00:48;25.60;99.90
12578;DHT22;6354;51.026;8.968;2022-08-21T08:03:17;25.80;99.90
12578;DHT22;6354;51.026;8.968;2022-08-21T08:05:55;25.60;99.90
12578;DHT22;6354;51.026;8.968;2022-08-21T08:08:24;25.30;99.90
12578;DHT22;6354;51.026;8.968;2022-08-21T08:10:56;25.30;99.90
12578;DHT22;6354;51.026;8.968;2022-08-21T08:13:26;25.20;99.90
12578;DHT22;6354;51.026;8.968;2022-08-21T08:15:54;25.20;99.90
12578;DHT22;6354;51.026;8.968;2022-08-21T08:18:22;25.10;99.90
12578;DHT22;6354;51.026;8.968;2022-08-21T08:20:50;25.20;99.90
12578;DHT22;6354;51.026;8.968;2022-08-21T08:23:18;25.10;99.90
12578;DHT22;6354;51.026;8.968;2022-08-21T08:25:47;25.00;99.90
12578;DHT22;6354;51.026;8.968;2022-08-21T08:28:16;25.00;99.90
12578;DHT22;6354;51.026;8.968;2022-08-21T08:30:45;25.10;99.90
12578;DHT22;6354;51.026;8.968;2022-08-21T08:33:14;25.00;99.90
12578;DHT22;6354;51.026;8.968;2022-08-21T08:35:45;25.00;99.90
12578;DHT22;6354;51.026;8.968;2022-08-21T08:38:14;24.80;99.90
12578;DHT22;6354;51.026;8.968;2022-08-21T08:40:52;24.90;99.90
12578;DHT22;6354;51.026;8.968;2022-08-21T08:43:22;24.50;99.90
12578;DHT22;6354;51.026;8.968;2022-08-21T08:45:54;24.30;99.90
12578;DHT22;6354;51.026;8.968;2022-08-21T08:48:36;24.30;99.90
12578;DHT22;6354;51.026;8.968;2022-08-21T08:51:13;24.40;99.90
12578;DHT22;6354;51.026;8.968;2022-08-21T08:53:48;24.40;99.90
12578;DHT22;6354;51.026;8.968;2022-08-21T08:56:22;24.40;99.90
12578;DHT22;6354;51.026;8.968;2022-08-21T08:58:52;24.20;99.90
12578;DHT22;6354;51.026;8.968;2022-08-21T09:01:21;24.00;99.90
12578;DHT22;6354;51.026;8.968;2022-08-21T09:03:51;24.30;99.90
12578;DHT22;6354;51.026;8.968;2022-08-21T09:06:36;24.50;99.90
12578;DHT22;6354;51.026;8.968;2022-08-21T09:09:14;24.60;99.90
12578;DHT22;6354;51.026;8.968;2022-08-21T09:11:50;24.60;99.90
12578;DHT22;6354;51.026;8.968;2022-08-21T09:14:29;24.60;99.90
12578;DHT22;6354;51.026;8.968;2022-08-21T09:17:19;24.80;99.90
12578;DHT22;6354;51.026;8.968;2022-08-21T09:20:00;24.90;99.90
12578;DHT22;6354;51.026;8.968;2022-08-21T09:22:34;24.90;99.90
12578;DHT22;6354;51.026;8.968;2022-08-21T09:25:12;24.90;99.90
12578;DHT22;6354;51.026;8.968;2022-08-21T09:27:43;25.00;99.90
12578;DHT22;6354;51.026;8.968;2022-08-21T09:30:13;25.00;99.90
12578;DHT22;6354;51.026;8.968;2022-08-21T09:32:41;25.10;99.90
12578;DHT22;6354;51.026;8.968;2022-08-21T09:35:12;25.10;99.90
12578;DHT22;6354;51.026;8.968;2022-08-21T09:37:50;25.10;99.90
12578;DHT22;6354;51.026;8.968;2022-08-21T09:40:31;25.10;99.90
12578;DHT22;6354;51.026;8.968;2022-08-21T09:43:02;25.10;99.90
12578;DHT22;6354;51.026;8.968;2022-08-21T09:45:33;25.00;99.90
12578;DHT22;6354;51.026;8.968;2022-08-21T09:48:13;25.00;99.90
12578;DHT22;6354;51.026;8.968;2022-08-21T09:50:42;25.10;99.90
12578;DHT22;6354;51.026;8.968;2022-08-21T09:53:19;25.20;99.90
12578;DHT22;6354;51.026;8.968;2022-08-21T09:55:51;25.20;99.90
12578;DHT22;6354;51.026;8.968;2022-08-21T09:58:40;25.10;99.90
12578;DHT22;6354;51.026;8.968;2022-08-21T10:01:16;25.30;99.90
12578;DHT22;6354;51.026;8.968;2022-08-21T10:03:49;25.40;99.90
12578;DHT22;6354;51.026;8.968;2022-08-21T10:06:23;25.40;99.90
12578;DHT22;6354;51.026;8.968;2022-08-21T10:09:04;25.20;99.60
12578;DHT22;6354;51.026;8.968;2022-08-21T10:11:33;25.10;99.90
12578;DHT22;6354;51.026;8.968;2022-08-21T10:14:10;25.20;99.90
12578;DHT22;6354;51.026;8.968;2022-08-21T10:16:49;25.20;99.90
12578;DHT22;6354;51.026;8.968;2022-08-21T10:19:23;25.10;99.90
12578;DHT22;6354;51.026;8.968;2022-08-21T10:22:00;25.20;99.90
12578;DHT22;6354;51.026;8.968;2022-08-21T10:24:33;25.30;99.90
12578;DHT22;6354;51.026;8.968;2022-08-21T10:27:18;25.30;99.90
12578;DHT22;6354;51.026;8.968;2022-08-21T10:29:55;25.30;99.70
12578;DHT22;6354;51.026;8.968;2022-08-21T10:35:22;25.50;99.90
12578;DHT22;6354;51.026;8.968;2022-08-21T10:38:12;25.60;99.10
12578;DHT22;6354;51.026;8.968;2022-08-21T10:41:11;25.30;98.30
12578;DHT22;6354;51.026;8.968;2022-08-21T10:43:48;25.40;99.90
12578;DHT22;6354;51.026;8.968;2022-08-21T10:46:39;25.60;99.40
12578;DHT22;6354;51.026;8.968;2022-08-21T10:49:19;25.50;99.40
12578;DHT22;6354;51.026;8.968;2022-08-21T10:51:56;25.50;99.00
12578;DHT22;6354;51.026;8.968;2022-08-21T10:54:33;25.50;99.90
12578;DHT22;6354;51.026;8.968;2022-08-21T10:57:07;25.60;99.60
12578;DHT22;6354;51.026;8.968;2022-08-21T10:59:41;25.80;99.90
12578;DHT22;6354;51.026;8.968;2022-08-21T11:02:17;25.70;99.30
12578;DHT22;6354;51.026;8.968;2022-08-21T11:04:53;25.80;99.20
12578;DHT22;6354;51.026;8.968;2022-08-21T11:07:27;25.90;99.60
12578;DHT22;6354;51.026;8.968;2022-08-21T11:10:04;25.80;98.50
12578;DHT22;6354;51.026;8.968;2022-08-21T11:12:40;25.80;97.90
12578;DHT22;6354;51.026;8.968;2022-08-21T11:15:22;25.80;98.00
12578;DHT22;6354;51.026;8.968;2022-08-21T11:18:01;25.70;98.30
12578;DHT22;6354;51.026;8.968;2022-08-21T11:20:38;25.80;99.30
12578;DHT22;6354;51.026;8.968;2022-08-21T11:23:14;26.00;99.40
12578;DHT22;6354;51.026;8.968;2022-08-21T11:25:49;26.00;98.70
12578;DHT22;6354;51.026;8.968;2022-08-21T11:28:22;26.00;98.70
12578;DHT22;6354;51.026;8.968;2022-08-21T11:30:59;25.90;97.00
12578;DHT22;6354;51.026;8.968;2022-08-21T11:33:43;26.00;97.80
12578;DHT22;6354;51.026;8.968;2022-08-21T11:36:20;26.10;97.90
12578;DHT22;6354;51.026;8.968;2022-08-21T11:38:57;26.20;97.80
12578;DHT22;6354;51.026;8.968;2022-08-21T11:41:34;26.30;98.00
12578;DHT22;6354;51.026;8.968;2022-08-21T11:44:12;26.30;96.60
12578;DHT22;6354;51.026;8.968;2022-08-21T11:46:48;26.30;95.90
12578;DHT22;6354;51.026;8.968;2022-08-21T11:49:31;26.30;96.00
12578;DHT22;6354;51.026;8.968;2022-08-21T11:52:10;26.20;96.40
12578;DHT22;6354;51.026;8.968;2022-08-21T11:54:45;26.20;97.10
12578;DHT22;6354;51.026;8.968;2022-08-21T11:57:18;26.10;97.40
12578;DHT22;6354;51.026;8.968;2022-08-21T11:59:53;25.90;97.40
12578;DHT22;6354;51.026;8.968;2022-08-21T12:02:28;25.90;97.20
12578;DHT22;6354;51.026;8.968;2022-08-21T12:05:00;25.80;98.10
12578;DHT22;6354;51.026;8.968;2022-08-21T12:07:38;25.60;96.70
12578;DHT22;6354;51.026;8.968;2022-08-21T12:10:10;25.70;97.10
12578;DHT22;6354;51.026;8.968;2022-08-21T12:12:40;25.80;96.90
12578;DHT22;6354;51.026;8.968;2022-08-21T12:15:24;25.90;96.10
12578;DHT22;6354;51.026;8.968;2022-08-21T12:17:56;26.00;96.80
12578;DHT22;6354;51.026;8.968;2022-08-21T12:20:41;26.10;96.40
12578;DHT22;6354;51.026;8.968;2022-08-21T12:23:29;26.10;95.30
12578;DHT22;6354;51.026;8.968;2022-08-21T12:26:26;26.10;96.40
12578;DHT22;6354;51.026;8.968;2022-08-21T12:29:16;26.20;95.30
12578;DHT22;6354;51.026;8.968;2022-08-21T12:31:52;26.20;96.10
12578;DHT22;6354;51.026;8.968;2022-08-21T12:34:25;26.40;96.50
12578;DHT22;6354;51.026;8.968;2022-08-21T12:36:57;26.50;96.30
12578;DHT22;6354;51.026;8.968;2022-08-21T12:39:29;26.60;95.80
12578;DHT22;6354;51.026;8.968;2022-08-21T12:42:04;26.50;95.30
12578;DHT22;6354;51.026;8.968;2022-08-21T12:44:38;26.50;95.60
12578;DHT22;6354;51.026;8.968;2022-08-21T12:47:15;26.50;95.70
12578;DHT22;6354;51.026;8.968;2022-08-21T12:49:54;26.40;94.50
12578;DHT22;6354;51.026;8.968;2022-08-21T12:52:29;26.10;93.70
12578;DHT22;6354;51.026;8.968;2022-08-21T12:55:07;25.90;94.40
12578;DHT22;6354;51.026;8.968;2022-08-21T12:57:36;25.70;94.20
12578;DHT22;6354;51.026;8.968;2022-08-21T13:00:08;25.60;94.40
12578;DHT22;6354;51.026;8.968;2022-08-21T13:02:42;25.50;95.10
12578;DHT22;6354;51.026;8.968;2022-08-21T13:05:13;25.50;96.20
12578;DHT22;6354;51.026;8.968;2022-08-21T13:07:45;25.50;96.40
12578;DHT22;6354;51.026;8.968;2022-08-21T13:10:19;25.70;96.10
12578;DHT22;6354;51.026;8.968;2022-08-21T13:12:48;25.80;95.30
12578;DHT22;6354;51.026;8.968;2022-08-21T13:15:23;25.90;95.00
12578;DHT22;6354;51.026;8.968;2022-08-21T13:18:01;25.90;94.70
12578;DHT22;6354;51.026;8.968;2022-08-21T13:20:32;26.00;94.70
12578;DHT22;6354;51.026;8.968;2022-08-21T13:23:01;26.00;95.00
12578;DHT22;6354;51.026;8.968;2022-08-21T13:25:36;25.90;94.00
12578;DHT22;6354;51.026;8.968;2022-08-21T13:28:08;25.80;94.50
12578;DHT22;6354;51.026;8.968;2022-08-21T13:30:39;25.70;95.30
12578;DHT22;6354;51.026;8.968;2022-08-21T13:33:10;25.70;94.50
12578;DHT22;6354;51.026;8.968;2022-08-21T13:35:47;25.70;94.90
12578;DHT22;6354;51.026;8.968;2022-08-21T13:38:16;25.80;94.70
12578;DHT22;6354;51.026;8.968;2022-08-21T13:40:49;25.90;94.40
12578;DHT22;6354;51.026;8.968;2022-08-21T13:43:20;26.00;94.40
12578;DHT22;6354;51.026;8.968;2022-08-21T13:45:52;26.10;94.20
12578;DHT22;6354;51.026;8.968;2022-08-21T13:48:22;26.30;94.60
12578;DHT22;6354;51.026;8.968;2022-08-21T13:50:51;26.40;94.20
12578;DHT22;6354;51.026;8.968;2022-08-21T13:53:23;26.50;94.00
12578;DHT22;6354;51.026;8.968;2022-08-21T13:55:52;26.60;94.60
12578;DHT22;6354;51.026;8.968;2022-08-21T13:58:28;26.60;94.10
12578;DHT22;6354;51.026;8.968;2022-08-21T14:00:58;26.70;93.70
12578;DHT22;6354;51.026;8.968;2022-08-21T14:03:35;26.70;93.30
12578;DHT22;6354;51.026;8.968;2022-08-21T14:06:11;26.60;92.90
12578;DHT22;6354;51.026;8.968;2022-08-21T14:08:42;26.60;92.90
12578;DHT22;6354;51.026;8.968;2022-08-21T14:11:16;26.70;92.70
12578;DHT22;6354;51.026;8.968;2022-08-21T14:13:47;26.70;92.90
12578;DHT22;6354;51.026;8.968;2022-08-21T14:16:20;26.70;92.90
12578;DHT22;6354;51.026;8.968;2022-08-21T14:18:52;26.70;92.90
12578;DHT22;6354;51.026;8.968;2022-08-21T14:21:28;26.70;92.90
12578;DHT22;6354;51.026;8.968;2022-08-21T14:24:04;26.70;92.90
12578;DHT22;6354;51.026;8.968;2022-08-21T14:26:35;26.70;92.30
12578;DHT22;6354;51.026;8.968;2022-08-21T14:29:08;26.70;91.70
12578;DHT22;6354;51.026;8.968;2022-08-21T14:31:36;26.60;92.00
12578;DHT22;6354;51.026;8.968;2022-08-21T14:34:10;26.60;92.30
12578;DHT22;6354;51.026;8.968;2022-08-21T14:36:46;26.60;91.60
12578;DHT22;6354;51.026;8.968;2022-08-21T14:39:14;26.60;92.90
12578;DHT22;6354;51.026;8.968;2022-08-21T14:41:44;26.70;92.10
12578;DHT22;6354;51.026;8.968;2022-08-21T14:44:16;26.80;90.30
12578;DHT22;6354;51.026;8.968;2022-08-21T14:46:45;26.90;90.90
12578;DHT22;6354;51.026;8.968;2022-08-21T14:49:24;26.90;91.40
12578;DHT22;6354;51.026;8.968;2022-08-21T14:51:54;27.00;91.10
12578;DHT22;6354;51.026;8.968;2022-08-21T14:54:25;26.90;90.90
12578;DHT22;6354;51.026;8.968;2022-08-21T14:57:01;26.80;90.90
12578;DHT22;6354;51.026;8.968;2022-08-21T14:59:30;26.80;91.30
12578;DHT22;6354;51.026;8.968;2022-08-21T15:01:59;26.80;90.40
12578;DHT22;6354;51.026;8.968;2022-08-21T15:04:27;26.70;90.90
12578;DHT22;6354;51.026;8.968;2022-08-21T15:06:56;26.80;91.10
12578;DHT22;6354;51.026;8.968;2022-08-21T15:09:24;26.80;90.30
12578;DHT22;6354;51.026;8.968;2022-08-21T15:11:53;26.80;89.60
12578;DHT22;6354;51.026;8.968;2022-08-21T15:14:26;26.90;90.70
12578;DHT22;6354;51.026;8.968;2022-08-21T15:16:55;27.10;90.40
12578;DHT22;6354;51.026;8.968;2022-08-21T15:19:23;27.10;90.00
12578;DHT22;6354;51.026;8.968;2022-08-21T15:21:52;27.10;90.10
12578;DHT22;6354;51.026;8.968;2022-08-21T15:24:20;27.10;90.50
12578;DHT22;6354;51.026;8.968;2022-08-21T15:26:49;27.20;89.00
12578;DHT22;6354;51.026;8.968;2022-08-21T15:29:17;27.30;88.80
12578;DHT22;6354;51.026;8.968;2022-08-21T15:31:55;27.20;89.80
12578;DHT22;6354;51.026;8.968;2022-08-21T15:34:24;27.20;90.00
12578;DHT22;6354;51.026;8.968;2022-08-21T15:36:54;27.30;90.00
12578;DHT22;6354;51.026;8.968;2022-08-21T15:39:23;27.30;89.00
12578;DHT22;6354;51.026;8.968;2022-08-21T15:41:56;27.20;88.80
12578;DHT22;6354;51.026;8.968;2022-08-21T15:44:25;27.20;88.70
12578;DHT22;6354;51.026;8.968;2022-08-21T15:46:56;27.20;88.30
12578;DHT22;6354;51.026;8.968;2022-08-21T15:49:24;27.20;88.40
12578;DHT22;6354;51.026;8.968;2022-08-21T15:51:52;27.20;89.70
12578;DHT22;6354;51.026;8.968;2022-08-21T15:54:20;27.20;87.80
12578;DHT22;6354;51.026;8.968;2022-08-21T15:56:50;27.20;87.60
12578;DHT22;6354;51.026;8.968;2022-08-21T15:59:20;27.20;87.30
12578;DHT22;6354;51.026;8.968;2022-08-21T16:01:49;27.20;89.20
12578;DHT22;6354;51.026;8.968;2022-08-21T16:04:22;27.10;88.40
12578;DHT22;6354;51.026;8.968;2022-08-21T16:06:51;27.10;88.20
12578;DHT22;6354;51.026;8.968;2022-08-21T16:09:27;27.00;89.20
12578;DHT22;6354;51.026;8.968;2022-08-21T16:11:55;26.90;88.30
12578;DHT22;6354;51.026;8.968;2022-08-21T16:14:23;26.80;88.20
12578;DHT22;6354;51.026;8.968;2022-08-21T16:16:52;26.70;89.00